Time;durP1;ratioP1;P1;durP2;ratioP2;P2;SDS_P1;SDS_P2;PMS_P1;PMS_P2;Temp;Humidity;BMP_temperature;BMP_pressure;BME280_temperature;BME280_humidity;BME280_pressure;Samples;Min_cycle;Max_cycle;Signal;HPM_P1;HPM_P2
2022/01/01 00:00:51;;;;;;;3.60;2.83;;;;;;;;;;5062695;28;20214;-71
2022/01/01 00:03:19;;;;;;;0.00;0.00;;;;;;;;;;5056257;28;20652;-71
2022/01/01 00:05:46;;;;;;;0.77;0.77;;;;;;;;;;5060019;28;20206;-70
2022/01/01 00:08:16;;;;;;;1.77;1.73;;;;;;;;;;5057504;28;20213;-70
2022/01/01 00:10:44;;;;;;;17.87;8.77;;;;;;;;;;5057038;28;20298;-71
2022/01/01 00:13:12;;;;;;;5.47;1.23;;;;;;;;;;5058702;28;20199;-72
2022/01/01 00:15:40;;;;;;;6.17;4.77;;;;;;;;;;5057618;28;20691;-72
2022/01/01 00:18:07;;;;;;;0.80;0.80;;;;;;;;;;5062543;28;20206;-69
2022/01/01 00:20:35;;;;;;;3.00;2.83;;;;;;;;;;5060908;28;20230;-71
2022/01/01 00:23:02;;;;;;;0.93;0.93;;;;;;;;;;5060045;28;20695;-73
2022/01/01 00:25:30;;;;;;;5.27;4.90;;;;;;;;;;5061246;28;20656;-72
2022/01/01 00:27:58;;;;;;;1.27;1.27;;;;;;;;;;5060517;28;20203;-73
2022/01/01 00:30:26;;;;;;;1.77;1.67;;;;;;;;;;5061647;28;20660;-74
2022/01/01 00:32:53;;;;;;;0.00;0.00;;;;;;;;;;5059632;28;20211;-73
2022/01/01 00:35:21;;;;;;;4.27;3.03;;;;;;;;;;5058260;28;20698;-73
2022/01/01 00:37:48;;;;;;;1.00;1.00;;;;;;;;;;5059259;28;20195;-70
2022/01/01 00:40:16;;;;;;;0.97;0.97;;;;;;;;;;5056853;28;20233;-73
2022/01/01 00:42:43;;;;;;;0.00;0.00;;;;;;;;;;5059046;28;20211;-73
2022/01/01 00:45:12;;;;;;;8.43;6.03;;;;;;;;;;5059960;28;20199;-71
2022/01/01 00:47:39;;;;;;;2.37;2.17;;;;;;;;;;5057410;28;21121;-72
2022/01/01 00:50:07;;;;;;;2.47;2.27;;;;;;;;;;5058866;28;20199;-68
2022/01/01 00:52:34;;;;;;;0.40;0.40;;;;;;;;;;5058394;28;20219;-72
2022/01/01 00:55:02;;;;;;;1.00;1.00;;;;;;;;;;5060253;28;20196;-73
2022/01/01 00:57:29;;;;;;;0.83;0.77;;;;;;;;;;5059340;28;20199;-73
2022/01/01 00:59:56;;;;;;;1.03;0.93;;;;;;;;;;5059781;28;20633;-72
2022/01/01 01:02:25;;;;;;;1.17;1.07;;;;;;;;;;5055158;28;20216;-72
2022/01/01 01:04:52;;;;;;;1.70;0.63;;;;;;;;;;5058857;28;20196;-73
2022/01/01 01:07:20;;;;;;;1.60;1.33;;;;;;;;;;5058466;28;20205;-72
2022/01/01 01:09:47;;;;;;;3.23;1.63;;;;;;;;;;5060158;28;20203;-71
2022/01/01 01:12:20;;;;;;;0.03;0.03;;;;;;;;;;5057576;28;20195;-70
2022/01/01 01:14:47;;;;;;;0.27;0.27;;;;;;;;;;5062020;28;20560;-71
2022/01/01 01:17:15;;;;;;;2.90;1.97;;;;;;;;;;5062543;28;20206;-70
2022/01/01 01:19:43;;;;;;;0.00;0.00;;;;;;;;;;5067735;28;20241;-71
2022/01/01 01:22:11;;;;;;;0.23;0.23;;;;;;;;;;5063319;28;20222;-74
2022/01/01 01:24:39;;;;;;;0.00;0.00;;;;;;;;;;5060785;28;20239;-72
2022/01/01 01:27:07;;;;;;;0.07;0.07;;;;;;;;;;5060890;28;20839;-72
2022/01/01 01:29:38;;;;;;;0.43;0.10;;;;;;;;;;5072184;28;20210;-73
2022/01/01 01:32:05;;;;;;;0.10;0.10;;;;;;;;;;5067344;28;20206;-73
2022/01/01 01:34:33;;;;;;;1.63;0.93;;;;;;;;;;5061507;28;20204;-71
2022/01/01 01:37:02;;;;;;;1.27;1.17;;;;;;;;;;5060979;28;20199;-72
2022/01/01 01:39:29;;;;;;;0.00;0.00;;;;;;;;;;5062630;28;20227;-72
2022/01/01 01:41:56;;;;;;;0.70;0.70;;;;;;;;;;5060702;28;20210;-73
2022/01/01 01:44:24;;;;;;;0.37;0.37;;;;;;;;;;5064627;28;20218;-73
2022/01/01 01:46:51;;;;;;;0.47;0.37;;;;;;;;;;5062731;28;20312;-74
2022/01/01 01:49:19;;;;;;;2.50;2.30;;;;;;;;;;5062552;28;20217;-72
2022/01/01 01:51:48;;;;;;;0.53;0.53;;;;;;;;;;5062553;28;20286;-72
2022/01/01 01:54:18;;;;;;;0.83;0.80;;;;;;;;;;5070161;28;20282;-73
2022/01/01 01:56:55;;;;;;;0.00;0.00;;;;;;;;;;5061551;28;20209;-73
2022/01/01 01:59:29;;;;;;;1.00;0.73;;;;;;;;;;5066738;28;20230;-74
2022/01/01 02:02:01;;;;;;;2.10;2.00;;;;;;;;;;5039180;28;20233;-73
2022/01/01 02:04:31;;;;;;;0.30;0.30;;;;;;;;;;5071694;28;20203;-73
2022/01/01 02:07:03;;;;;;;3.97;1.43;;;;;;;;;;5071801;28;20575;-73
2022/01/01 02:09:36;;;;;;;2.93;1.43;;;;;;;;;;5035857;28;20244;-71
2022/01/01 02:12:06;;;;;;;1.73;1.60;;;;;;;;;;5059387;28;20599;-72
2022/01/01 02:15:06;;;;;;;0.00;0.00;;;;;;;;;;5050406;28;20211;-70
2022/01/01 02:17:37;;;;;;;0.27;0.27;;;;;;;;;;5043544;28;20210;-70
2022/01/01 02:20:25;;;;;;;0.83;0.83;;;;;;;;;;5063424;28;20226;-71
2022/01/01 02:23:00;;;;;;;1.80;1.70;;;;;;;;;;5061482;28;20211;-69
2022/01/01 02:25:29;;;;;;;1.30;1.30;;;;;;;;;;5059592;28;20198;-71
2022/01/01 02:27:56;;;;;;;0.63;0.60;;;;;;;;;;5059859;28;20217;-73
2022/01/01 02:30:24;;;;;;;2.33;2.13;;;;;;;;;;5062977;28;20626;-72
2022/01/01 02:32:51;;;;;;;4.87;4.07;;;;;;;;;;5060227;28;20202;-71
2022/01/01 02:35:20;;;;;;;1.30;1.20;;;;;;;;;;5059388;28;20207;-72
2022/01/01 02:37:47;;;;;;;0.93;0.93;;;;;;;;;;5060436;28;20537;-72
2022/01/01 02:40:16;;;;;;;1.53;1.30;;;;;;;;;;5060417;28;20321;-71
2022/01/01 02:42:43;;;;;;;1.90;1.80;;;;;;;;;;5059517;28;20295;-72
2022/01/01 02:45:12;;;;;;;1.60;1.50;;;;;;;;;;5054250;28;20207;-71
2022/01/01 02:47:39;;;;;;;1.07;1.03;;;;;;;;;;5058033;28;20298;-69
2022/01/01 02:50:19;;;;;;;7.53;2.27;;;;;;;;;;5057882;28;20203;-69
2022/01/01 02:53:22;;;;;;;0.67;0.67;;;;;;;;;;5067735;28;20203;-70
2022/01/01 02:56:00;;;;;;;1.43;0.47;;;;;;;;;;5045035;28;20592;-69
2022/01/01 02:58:29;;;;;;;2.37;1.20;;;;;;;;;;5063302;28;20253;-71
2022/01/01 03:00:57;;;;;;;0.83;0.83;;;;;;;;;;5057518;28;20378;-72
2022/01/01 03:03:27;;;;;;;3.03;1.60;;;;;;;;;;5058119;28;20210;-71
2022/01/01 03:05:57;;;;;;;0.07;0.07;;;;;;;;;;5059208;28;20269;-73
2022/01/01 03:08:27;;;;;;;1.43;1.40;;;;;;;;;;5060673;28;20268;-71
2022/01/01 03:11:02;;;;;;;1.47;1.37;;;;;;;;;;5061051;28;20202;-72
2022/01/01 03:13:33;;;;;;;1.07;1.00;;;;;;;;;;5059445;28;20663;-73
2022/01/01 03:16:04;;;;;;;4.77;3.43;;;;;;;;;;5056135;28;20256;-68
2022/01/01 03:18:33;;;;;;;3.93;0.73;;;;;;;;;;5064830;28;20298;-71
2022/01/01 03:21:02;;;;;;;3.37;2.07;;;;;;;;;;5060436;28;20223;-73
2022/01/01 03:23:31;;;;;;;0.20;0.20;;;;;;;;;;5058787;28;20272;-71
2022/01/01 03:26:04;;;;;;;1.40;1.13;;;;;;;;;;5056564;28;20203;-70
2022/01/01 03:28:33;;;;;;;0.73;0.73;;;;;;;;;;5061223;28;20730;-71
2022/01/01 03:31:02;;;;;;;0.80;0.80;;;;;;;;;;5057902;28;20199;-72
2022/01/01 03:33:31;;;;;;;1.63;1.53;;;;;;;;;;5057760;28;20302;-72
2022/01/01 03:36:01;;;;;;;1.87;1.17;;;;;;;;;;5060835;28;20617;-70
2022/01/01 03:38:31;;;;;;;2.63;1.27;;;;;;;;;;5058445;28;20195;-69
2022/01/01 03:41:01;;;;;;;1.60;1.23;;;;;;;;;;5057925;28;20233;-69
2022/01/01 03:43:30;;;;;;;0.10;0.10;;;;;;;;;;5060458;28;20207;-71
2022/01/01 03:46:04;;;;;;;0.20;0.10;;;;;;;;;;5055837;28;20241;-71
2022/01/01 03:48:40;;;;;;;0.80;0.80;;;;;;;;;;5044016;28;20205;-73
2022/01/01 03:51:20;;;;;;;0.77;0.77;;;;;;;;;;5060981;28;20209;-73
2022/01/01 03:53:57;;;;;;;0.33;0.33;;;;;;;;;;5058403;28;20318;-71
2022/01/01 03:56:36;;;;;;;1.40;1.30;;;;;;;;;;5059212;28;20214;-71
2022/01/01 03:59:23;;;;;;;0.00;0.00;;;;;;;;;;5055011;28;20647;-72
2022/01/01 04:02:03;;;;;;;1.83;1.40;;;;;;;;;;5057660;28;20207;-72
2022/01/01 04:07:22;;;;;;;0.20;0.20;;;;;;;;;;5061020;28;20202;-71
2022/01/01 04:09:57;;;;;;;0.60;0.60;;;;;;;;;;5041275;28;20250;-72
2022/01/01 04:12:40;;;;;;;1.03;0.93;;;;;;;;;;5040559;28;21026;-71
2022/01/01 04:15:28;;;;;;;2.73;1.97;;;;;;;;;;5057823;28;20210;-73
2022/01/01 04:18:08;;;;;;;2.53;1.20;;;;;;;;;;5061927;28;20660;-70
2022/01/01 04:20:44;;;;;;;0.53;0.53;;;;;;;;;;5060106;28;21056;-71
2022/01/01 04:23:23;;;;;;;1.70;0.93;;;;;;;;;;5060209;28;20276;-73
2022/01/01 04:25:57;;;;;;;2.03;1.37;;;;;;;;;;5040074;28;20683;-71
2022/01/01 04:28:46;;;;;;;0.00;0.00;;;;;;;;;;5059797;28;20217;-71
2022/01/01 04:31:25;;;;;;;0.57;0.57;;;;;;;;;;5055693;28;20233;-72
2022/01/01 04:33:59;;;;;;;0.40;0.30;;;;;;;;;;5059634;28;20198;-73
2022/01/01 04:36:31;;;;;;;0.50;0.50;;;;;;;;;;5062235;28;20322;-73
2022/01/01 04:39:05;;;;;;;0.23;0.23;;;;;;;;;;5059685;28;20203;-69
2022/01/01 04:41:41;;;;;;;2.10;0.67;;;;;;;;;;5058194;28;20218;-70
2022/01/01 04:44:21;;;;;;;0.97;0.93;;;;;;;;;;5059063;28;20289;-70
2022/01/01 04:46:56;;;;;;;1.57;0.67;;;;;;;;;;5066857;28;20277;-71
2022/01/01 04:49:24;;;;;;;1.80;0.90;;;;;;;;;;5063113;28;20341;-72
2022/01/01 04:51:51;;;;;;;0.00;0.00;;;;;;;;;;5063534;28;20211;-69
2022/01/01 04:54:19;;;;;;;0.73;0.73;;;;;;;;;;5061501;28;20698;-69
2022/01/01 04:56:59;;;;;;;0.20;0.20;;;;;;;;;;5064489;28;20199;-68
2022/01/01 04:59:28;;;;;;;0.40;0.40;;;;;;;;;;5064196;28;20199;-68
2022/01/01 05:01:55;;;;;;;0.00;0.00;;;;;;;;;;5059695;28;20198;-70
2022/01/01 05:04:23;;;;;;;0.57;0.47;;;;;;;;;;5059789;28;20574;-72
2022/01/01 05:06:51;;;;;;;0.67;0.67;;;;;;;;;;5062274;28;20207;-71
2022/01/01 05:09:20;;;;;;;0.30;0.30;;;;;;;;;;5061387;28;20207;-71
2022/01/01 05:11:47;;;;;;;0.37;0.37;;;;;;;;;;5062265;28;20211;-70
2022/01/01 05:14:15;;;;;;;0.43;0.43;;;;;;;;;;5061758;28;20202;-69
2022/01/01 05:16:45;;;;;;;1.80;1.70;;;;;;;;;;5061600;28;20198;-70
2022/01/01 05:19:19;;;;;;;0.37;0.37;;;;;;;;;;5062050;28;20202;-71
2022/01/01 05:21:50;;;;;;;1.20;1.10;;;;;;;;;;5060659;28;20226;-70
2022/01/01 05:24:20;;;;;;;0.40;0.40;;;;;;;;;;5062570;28;20211;-71
2022/01/01 05:26:48;;;;;;;8.03;1.20;;;;;;;;;;5062465;28;20234;-70
2022/01/01 05:29:19;;;;;;;0.67;0.67;;;;;;;;;;5060396;28;20648;-69
2022/01/01 05:31:56;;;;;;;0.57;0.57;;;;;;;;;;5061486;28;20207;-71
2022/01/01 05:34:23;;;;;;;1.40;1.30;;;;;;;;;;5062966;28;20655;-72
2022/01/01 05:36:50;;;;;;;1.33;1.23;;;;;;;;;;5061897;28;20214;-70
2022/01/01 05:39:18;;;;;;;1.73;1.60;;;;;;;;;;5060707;28;20210;-72
2022/01/01 05:41:45;;;;;;;0.57;0.57;;;;;;;;;;5061593;28;20231;-70
2022/01/01 05:44:12;;;;;;;0.20;0.20;;;;;;;;;;5061928;28;20652;-70
2022/01/01 05:46:40;;;;;;;1.67;1.57;;;;;;;;;;5061586;28;20227;-72
2022/01/01 09:44:31;;;;;;;2.53;2.33;;;;;;;;;;5093296;27;20627;-70
2022/01/01 09:46:59;;;;;;;3.67;1.70;;;;;;;;;;5093959;28;20208;-71
2022/01/01 09:49:26;;;;;;;3.10;1.67;;;;;;;;;;5090311;28;20205;-72
2022/01/01 09:51:53;;;;;;;7.63;1.80;;;;;;;;;;5095179;28;20210;-70
2022/01/01 09:54:21;;;;;;;4.23;2.13;;;;;;;;;;5100594;27;20226;-70
2022/01/01 09:56:48;;;;;;;3.10;1.73;;;;;;;;;;5100442;28;20208;-67
2022/01/01 09:59:15;;;;;;;1.70;1.57;;;;;;;;;;5102292;28;20202;-73
2022/01/01 10:01:44;;;;;;;3.57;2.50;;;;;;;;;;5100044;28;20197;-71
2022/01/01 10:04:15;;;;;;;1.43;1.20;;;;;;;;;;5097047;28;22176;-69
2022/01/01 10:06:43;;;;;;;12.17;6.80;;;;;;;;;;5085781;28;20217;-68
2022/01/01 10:09:11;;;;;;;2.87;2.27;;;;;;;;;;5089499;28;20289;-71
2022/01/01 10:11:38;;;;;;;10.17;5.33;;;;;;;;;;5084794;28;20206;-68
2022/01/01 10:14:07;;;;;;;6.10;2.40;;;;;;;;;;5089260;28;20225;-72
2022/01/01 10:16:41;;;;;;;5.80;3.13;;;;;;;;;;5086238;28;20203;-71
2022/01/01 10:19:10;;;;;;;3.43;1.40;;;;;;;;;;5086767;28;20212;-70
2022/01/01 10:21:41;;;;;;;9.90;3.93;;;;;;;;;;5087617;28;20206;-69
2022/01/01 10:24:13;;;;;;;4.83;3.13;;;;;;;;;;5090263;28;20205;-68
2022/01/01 10:29:27;;;;;;;1.40;0.60;;;;;;;;;;5088094;28;20212;-69
2022/01/01 10:31:58;;;;;;;7.57;5.37;;;;;;;;;;5090027;28;20205;-69
2022/01/01 10:34:28;;;;;;;0.23;0.23;;;;;;;;;;5085006;28;20236;-68
2022/01/01 10:36:55;;;;;;;15.50;6.27;;;;;;;;;;5082794;28;20259;-70
2022/01/01 10:39:23;;;;;;;2.63;2.03;;;;;;;;;;5086108;28;20666;-71
2022/01/01 10:41:51;;;;;;;2.80;1.90;;;;;;;;;;5096968;28;20205;-68
2022/01/01 10:44:22;;;;;;;1.83;1.57;;;;;;;;;;5098818;28;20236;-69
2022/01/01 10:46:50;;;;;;;9.10;4.13;;;;;;;;;;5105936;28;20206;-69
2022/01/01 10:49:52;;;;;;;1.33;1.23;;;;;;;;;;5115063;28;20197;-69
2022/01/01 10:52:24;;;;;;;0.83;0.40;;;;;;;;;;5082110;28;20658;-70
2022/01/01 10:54:53;;;;;;;0.10;0.10;;;;;;;;;;5073742;28;20590;-71
2022/01/01 10:57:25;;;;;;;1.33;0.53;;;;;;;;;;5068856;28;20206;-67
2022/01/01 10:59:53;;;;;;;8.23;3.70;;;;;;;;;;5069399;28;20247;-67
2022/01/01 11:02:25;;;;;;;2.33;2.10;;;;;;;;;;5066535;28;20217;-70
2022/01/01 11:04:53;;;;;;;4.87;1.83;;;;;;;;;;5071285;28;20820;-68
2022/01/01 11:07:27;;;;;;;6.17;4.20;;;;;;;;;;5067026;28;20298;-70
2022/01/01 11:09:56;;;;;;;1.47;1.20;;;;;;;;;;5067560;28;21273;-68
2022/01/01 11:12:24;;;;;;;1.10;0.97;;;;;;;;;;5069641;28;20290;-70
2022/01/01 11:14:52;;;;;;;2.27;1.83;;;;;;;;;;5067068;28;20208;-68
2022/01/01 11:17:20;;;;;;;2.87;2.57;;;;;;;;;;5069757;28;20207;-69
2022/01/01 11:19:48;;;;;;;3.37;3.07;;;;;;;;;;5065663;28;20209;-69
2022/01/01 11:22:18;;;;;;;2.73;1.63;;;;;;;;;;5063044;28;20218;-69
2022/01/01 11:24:46;;;;;;;1.50;1.30;;;;;;;;;;5069770;28;20675;-69
2022/01/01 11:27:14;;;;;;;1.60;1.50;;;;;;;;;;5067461;28;20211;-68
2022/01/01 11:29:49;;;;;;;0.53;0.53;;;;;;;;;;5066175;28;20235;-69
2022/01/01 11:32:17;;;;;;;6.27;3.60;;;;;;;;;;5065705;28;20223;-69
2022/01/01 11:34:46;;;;;;;1.93;1.40;;;;;;;;;;5067822;28;20230;-68
2022/01/01 11:37:15;;;;;;;2.07;1.33;;;;;;;;;;5076316;28;20202;-68
2022/01/01 11:39:44;;;;;;;3.00;1.60;;;;;;;;;;5081412;28;20221;-69
2022/01/01 11:42:13;;;;;;;3.20;1.17;;;;;;;;;;5076239;28;20225;-70
2022/01/01 11:44:42;;;;;;;3.20;2.63;;;;;;;;;;5079322;28;20209;-69
2022/01/01 11:47:16;;;;;;;1.47;1.37;;;;;;;;;;5067050;28;20573;-71
2022/01/01 11:49:43;;;;;;;1.20;1.10;;;;;;;;;;5066850;28;20210;-71
2022/01/01 11:52:10;;;;;;;2.10;1.90;;;;;;;;;;5067116;28;20209;-72
2022/01/01 11:54:39;;;;;;;1.77;1.40;;;;;;;;;;5068247;28;20234;-70
2022/01/01 11:57:12;;;;;;;0.40;0.40;;;;;;;;;;5067044;28;20255;-71
2022/01/01 11:59:46;;;;;;;3.10;1.00;;;;;;;;;;5064164;28;20585;-70
2022/01/01 12:02:30;;;;;;;2.47;2.23;;;;;;;;;;5067088;28;20216;-75
2022/01/01 12:05:07;;;;;;;1.00;0.93;;;;;;;;;;5064570;28;20268;-68
2022/01/01 12:07:42;;;;;;;1.83;1.73;;;;;;;;;;5064066;28;20674;-70
2022/01/01 12:10:14;;;;;;;0.50;0.50;;;;;;;;;;5069587;28;20233;-72
2022/01/01 12:12:44;;;;;;;1.90;1.23;;;;;;;;;;5063855;28;20214;-70
2022/01/01 12:15:20;;;;;;;0.77;0.77;;;;;;;;;;5064584;28;20209;-72
2022/01/01 12:17:50;;;;;;;0.83;0.63;;;;;;;;;;5066877;28;20504;-69
2022/01/01 12:20:18;;;;;;;0.50;0.50;;;;;;;;;;5066777;28;20702;-72
2022/01/01 12:22:45;;;;;;;0.53;0.53;;;;;;;;;;5065483;28;20206;-72
2022/01/01 12:25:15;;;;;;;1.27;1.10;;;;;;;;;;5066375;28;20213;-71
2022/01/01 12:27:47;;;;;;;4.27;2.17;;;;;;;;;;5064236;28;20209;-74
2022/01/01 12:30:15;;;;;;;2.20;1.23;;;;;;;;;;5064948;28;20194;-69
2022/01/01 12:32:44;;;;;;;1.40;1.03;;;;;;;;;;5063834;28;20209;-70
2022/01/01 12:35:17;;;;;;;0.50;0.50;;;;;;;;;;5066901;28;20230;-70
2022/01/01 12:37:44;;;;;;;1.40;1.13;;;;;;;;;;5065193;28;20198;-69
2022/01/01 12:40:13;;;;;;;1.07;0.60;;;;;;;;;;5064113;28;20215;-72
2022/01/01 12:42:46;;;;;;;0.80;0.80;;;;;;;;;;5068421;28;20354;-71
2022/01/01 12:45:16;;;;;;;0.97;0.87;;;;;;;;;;5064390;28;20262;-69
2022/01/01 12:47:44;;;;;;;1.50;1.00;;;;;;;;;;5065871;28;20255;-72
2022/01/01 12:50:11;;;;;;;0.70;0.70;;;;;;;;;;5065357;28;20206;-71
2022/01/01 12:52:38;;;;;;;0.67;0.30;;;;;;;;;;5063173;28;23199;-72
2022/01/01 12:55:06;;;;;;;0.73;0.73;;;;;;;;;;5068002;28;20236;-70
2022/01/01 12:57:34;;;;;;;0.00;0.00;;;;;;;;;;5065276;28;20217;-72
2022/01/01 13:00:19;;;;;;;3.50;0.73;;;;;;;;;;5065877;28;20203;-69
2022/01/01 13:03:01;;;;;;;0.57;0.57;;;;;;;;;;5068743;28;20213;-68
2022/01/01 13:05:34;;;;;;;1.03;0.73;;;;;;;;;;5069355;28;20209;-70
2022/01/01 13:08:09;;;;;;;0.20;0.10;;;;;;;;;;5069949;28;20217;-71
2022/01/01 13:10:39;;;;;;;0.30;0.30;;;;;;;;;;5067701;28;20785;-73
2022/01/01 13:13:07;;;;;;;1.43;1.33;;;;;;;;;;5065548;28;20294;-74
2022/01/01 13:15:37;;;;;;;1.13;0.30;;;;;;;;;;5066962;28;20206;-71
2022/01/01 13:18:06;;;;;;;0.20;0.20;;;;;;;;;;5070318;28;20206;-69
2022/01/01 13:20:33;;;;;;;0.30;0.17;;;;;;;;;;5068340;28;20253;-74
2022/01/01 13:23:05;;;;;;;0.07;0.07;;;;;;;;;;5070930;28;20199;-70
2022/01/01 13:25:33;;;;;;;0.80;0.80;;;;;;;;;;5069982;28;20217;-72
2022/01/01 13:28:00;;;;;;;0.60;0.60;;;;;;;;;;5073201;28;20203;-72
2022/01/01 13:30:28;;;;;;;2.87;1.17;;;;;;;;;;5069030;28;20325;-71
2022/01/01 13:32:55;;;;;;;1.43;0.93;;;;;;;;;;5070078;28;20196;-72
2022/01/01 13:35:29;;;;;;;0.00;0.00;;;;;;;;;;5068828;28;20226;-73
2022/01/01 13:37:57;;;;;;;2.40;0.40;;;;;;;;;;5070588;28;20302;-70
2022/01/01 13:40:24;;;;;;;0.30;0.20;;;;;;;;;;5070401;28;20209;-69
2022/01/01 13:42:52;;;;;;;1.17;0.73;;;;;;;;;;5064095;28;20365;-68
2022/01/01 13:45:24;;;;;;;0.43;0.40;;;;;;;;;;5066907;28;20824;-68
2022/01/01 13:47:52;;;;;;;1.47;0.37;;;;;;;;;;5065148;28;20314;-69
2022/01/01 13:50:20;;;;;;;0.57;0.57;;;;;;;;;;5064575;28;21516;-69
2022/01/01 13:52:57;;;;;;;1.60;0.60;;;;;;;;;;5064871;28;21519;-69
2022/01/01 13:55:26;;;;;;;0.73;0.50;;;;;;;;;;5064615;28;20313;-67
2022/01/01 13:57:56;;;;;;;0.63;0.63;;;;;;;;;;5066259;28;20218;-67
2022/01/01 14:00:24;;;;;;;0.20;0.20;;;;;;;;;;5066818;28;20202;-68
2022/01/01 14:02:54;;;;;;;0.50;0.40;;;;;;;;;;5071967;28;20213;-68
2022/01/01 14:05:22;;;;;;;0.17;0.17;;;;;;;;;;5072910;28;20202;-68
2022/01/01 14:07:51;;;;;;;0.30;0.30;;;;;;;;;;5067941;28;20209;-70
2022/01/01 14:10:20;;;;;;;1.80;0.90;;;;;;;;;;5072431;28;20245;-67
2022/01/01 14:12:50;;;;;;;0.70;0.47;;;;;;;;;;5070875;28;20206;-67
2022/01/01 14:15:18;;;;;;;1.80;0.87;;;;;;;;;;5071194;28;20230;-71
2022/01/01 14:17:56;;;;;;;0.30;0.20;;;;;;;;;;5071550;28;20221;-71
2022/01/01 14:20:25;;;;;;;0.00;0.00;;;;;;;;;;5069106;28;20641;-67
2022/01/01 14:22:52;;;;;;;0.00;0.00;;;;;;;;;;5072755;28;20616;-71
2022/01/01 14:25:23;;;;;;;0.30;0.30;;;;;;;;;;5083786;28;20190;-71
2022/01/01 14:27:51;;;;;;;0.00;0.00;;;;;;;;;;5083328;28;20997;-68
2022/01/01 14:30:18;;;;;;;1.30;0.87;;;;;;;;;;5086557;28;20206;-72
2022/01/01 14:32:46;;;;;;;1.27;1.27;;;;;;;;;;5085574;28;20198;-73
2022/01/01 14:35:14;;;;;;;1.00;0.80;;;;;;;;;;5075998;28;20320;-71
2022/01/01 14:37:41;;;;;;;0.00;0.00;;;;;;;;;;5074600;28;20210;-68
2022/01/01 14:40:09;;;;;;;1.03;1.03;;;;;;;;;;5072439;28;20207;-68
2022/01/01 14:42:39;;;;;;;3.30;0.47;;;;;;;;;;5072986;28;20235;-68
2022/01/01 14:45:08;;;;;;;0.30;0.30;;;;;;;;;;5074999;28;20614;-71
2022/01/01 14:47:44;;;;;;;0.53;0.23;;;;;;;;;;5076305;28;21189;-68
2022/01/01 14:50:12;;;;;;;0.10;0.10;;;;;;;;;;5074828;28;20201;-70
2022/01/01 14:52:46;;;;;;;0.47;0.30;;;;;;;;;;5075814;28;20194;-70
2022/01/01 14:55:15;;;;;;;0.20;0.20;;;;;;;;;;5076887;28;20308;-71
2022/01/01 14:57:45;;;;;;;0.67;0.67;;;;;;;;;;5077003;28;20955;-74
2022/01/01 15:00:15;;;;;;;0.10;0.10;;;;;;;;;;5078683;28;20222;-72
2022/01/01 15:02:44;;;;;;;2.63;2.43;;;;;;;;;;5076770;28;20209;-69
2022/01/01 15:05:12;;;;;;;1.70;0.80;;;;;;;;;;5079079;28;20754;-71
2022/01/01 15:07:40;;;;;;;0.10;0.10;;;;;;;;;;5078819;28;20554;-67
2022/01/01 15:10:09;;;;;;;0.20;0.13;;;;;;;;;;5077510;28;20676;-73
2022/01/01 15:12:36;;;;;;;0.00;0.00;;;;;;;;;;5078098;28;20210;-70
2022/01/01 15:15:07;;;;;;;0.10;0.10;;;;;;;;;;5076004;28;21019;-72
2022/01/01 15:17:36;;;;;;;0.10;0.10;;;;;;;;;;5080194;28;20206;-71
2022/01/01 15:20:03;;;;;;;0.30;0.30;;;;;;;;;;5079182;28;20207;-70
2022/01/01 15:22:35;;;;;;;0.43;0.43;;;;;;;;;;5076538;28;20214;-75
2022/01/01 15:25:03;;;;;;;0.10;0.10;;;;;;;;;;5079922;28;20199;-72
2022/01/01 15:27:34;;;;;;;0.07;0.07;;;;;;;;;;5077825;28;20206;-71
2022/01/01 15:30:16;;;;;;;0.10;0.10;;;;;;;;;;5074265;28;20309;-75
2022/01/01 15:35:39;;;;;;;0.00;0.00;;;;;;;;;;5076700;28;20241;-72
2022/01/01 15:38:18;;;;;;;0.20;0.20;;;;;;;;;;5074499;28;20264;-76
2022/01/01 15:40:57;;;;;;;0.00;0.00;;;;;;;;;;5074463;28;20214;-69
2022/01/01 15:43:24;;;;;;;0.40;0.40;;;;;;;;;;5095517;28;20594;-73
2022/01/01 15:45:53;;;;;;;0.47;0.47;;;;;;;;;;5094367;28;20237;-76
2022/01/01 15:48:28;;;;;;;1.57;1.27;;;;;;;;;;5094411;28;20205;-68
2022/01/01 15:51:18;;;;;;;0.00;0.00;;;;;;;;;;5072519;28;20208;-69
2022/01/01 15:54:03;;;;;;;0.87;0.40;;;;;;;;;;5076263;28;20206;-77
2022/01/01 15:56:55;;;;;;;0.90;0.90;;;;;;;;;;5072945;28;20241;-69
2022/01/01 15:59:44;;;;;;;0.77;0.60;;;;;;;;;;5073325;28;20209;-73
2022/01/01 16:02:28;;;;;;;0.00;0.00;;;;;;;;;;5073680;28;20339;-69
2022/01/01 16:08:04;;;;;;;0.83;0.83;;;;;;;;;;5078301;28;20199;-75
2022/01/01 16:10:36;;;;;;;1.07;0.87;;;;;;;;;;5076360;28;20808;-74
2022/01/01 16:13:10;;;;;;;0.47;0.47;;;;;;;;;;5077935;28;20242;-72
2022/01/01 16:15:50;;;;;;;0.53;0.50;;;;;;;;;;5076361;28;20230;-74
2022/01/01 16:18:26;;;;;;;0.33;0.20;;;;;;;;;;5075070;28;20571;-73
2022/01/01 16:21:05;;;;;;;0.53;0.53;;;;;;;;;;5077782;28;20202;-73
2022/01/01 16:23:41;;;;;;;0.17;0.17;;;;;;;;;;5077723;28;20213;-72
2022/01/01 16:26:25;;;;;;;0.33;0.20;;;;;;;;;;5074102;28;20202;-73
2022/01/01 16:29:05;;;;;;;3.07;1.00;;;;;;;;;;5077626;27;20218;-78
2022/01/01 16:31:40;;;;;;;0.87;0.70;;;;;;;;;;5076201;28;20206;-70
2022/01/01 16:34:11;;;;;;;0.00;0.00;;;;;;;;;;5073310;28;20210;-69
2022/01/01 16:36:43;;;;;;;0.73;0.73;;;;;;;;;;5074695;28;20814;-68
2022/01/01 16:39:19;;;;;;;1.33;1.17;;;;;;;;;;5079926;28;20268;-75
2022/01/01 16:42:02;;;;;;;1.00;0.97;;;;;;;;;;5071244;28;20237;-69
2022/01/01 16:44:31;;;;;;;0.20;0.20;;;;;;;;;;5074956;28;20210;-68
2022/01/01 16:47:02;;;;;;;0.67;0.50;;;;;;;;;;5076350;28;20198;-70
2022/01/01 16:49:32;;;;;;;1.40;0.30;;;;;;;;;;5072402;28;20209;-69
2022/01/01 16:52:03;;;;;;;0.10;0.10;;;;;;;;;;5067615;28;20208;-68
2022/01/01 16:54:32;;;;;;;0.50;0.50;;;;;;;;;;5070249;28;20206;-69
2022/01/01 16:57:02;;;;;;;0.10;0.10;;;;;;;;;;5069676;28;20212;-68
2022/01/01 16:59:32;;;;;;;0.67;0.50;;;;;;;;;;5069125;28;20198;-69
2022/01/01 17:02:02;;;;;;;2.23;0.77;;;;;;;;;;5069090;28;20186;-67
2022/01/01 17:04:33;;;;;;;0.23;0.23;;;;;;;;;;5072187;28;20209;-70
2022/01/01 17:07:03;;;;;;;0.50;0.50;;;;;;;;;;5067493;28;20206;-69
2022/01/01 17:09:32;;;;;;;0.77;0.77;;;;;;;;;;5068753;28;20203;-69
2022/01/01 17:12:01;;;;;;;0.63;0.60;;;;;;;;;;5070011;28;20698;-69
2022/01/01 17:14:29;;;;;;;0.77;0.33;;;;;;;;;;5066120;28;20297;-68
2022/01/01 17:17:02;;;;;;;0.43;0.23;;;;;;;;;;5067727;28;20572;-70
2022/01/01 17:19:36;;;;;;;0.37;0.37;;;;;;;;;;5065724;28;20268;-71
2022/01/01 17:22:09;;;;;;;0.17;0.17;;;;;;;;;;5074314;28;20198;-69
2022/01/01 17:24:42;;;;;;;0.30;0.30;;;;;;;;;;5066591;28;20664;-67
2022/01/01 17:27:13;;;;;;;1.03;0.93;;;;;;;;;;5067888;28;20195;-71
2022/01/01 17:29:43;;;;;;;0.23;0.20;;;;;;;;;;5063492;28;22001;-69
2022/01/01 17:32:13;;;;;;;0.27;0.27;;;;;;;;;;5071913;28;20967;-69
2022/01/01 17:34:58;;;;;;;1.10;1.00;;;;;;;;;;5070762;28;20198;-69
2022/01/01 17:37:40;;;;;;;0.10;0.10;;;;;;;;;;5073060;28;20276;-69
2022/01/01 17:40:08;;;;;;;0.20;0.20;;;;;;;;;;5072137;28;20312;-69
2022/01/01 17:42:39;;;;;;;0.30;0.30;;;;;;;;;;5069543;28;20229;-68
2022/01/01 17:45:07;;;;;;;0.73;0.73;;;;;;;;;;5076053;28;20349;-69
2022/01/01 17:47:35;;;;;;;0.97;0.50;;;;;;;;;;5075444;28;20194;-68
2022/01/01 17:50:10;;;;;;;1.27;0.90;;;;;;;;;;5070845;28;20207;-69
2022/01/01 17:52:41;;;;;;;0.10;0.10;;;;;;;;;;5074946;28;20208;-68
2022/01/01 17:55:09;;;;;;;5.30;1.13;;;;;;;;;;5075604;28;20236;-74
2022/01/01 17:57:37;;;;;;;0.00;0.00;;;;;;;;;;5071882;28;20205;-69
2022/01/01 18:00:08;;;;;;;2.23;0.30;;;;;;;;;;5066083;28;20213;-67
2022/01/01 18:02:35;;;;;;;0.33;0.30;;;;;;;;;;5067949;28;20226;-68
2022/01/01 18:05:05;;;;;;;0.33;0.23;;;;;;;;;;5072330;28;20214;-70
2022/01/01 18:07:36;;;;;;;0.63;0.63;;;;;;;;;;5074845;28;20655;-71
2022/01/01 18:10:08;;;;;;;1.43;0.87;;;;;;;;;;5072855;28;20694;-68
2022/01/01 18:12:37;;;;;;;0.93;0.87;;;;;;;;;;5070842;28;20194;-68
2022/01/01 18:15:05;;;;;;;0.43;0.33;;;;;;;;;;5070481;28;24609;-69
2022/01/01 18:17:34;;;;;;;0.10;0.10;;;;;;;;;;5069901;28;20210;-69
2022/01/01 18:20:03;;;;;;;0.10;0.10;;;;;;;;;;5068011;28;20225;-69
2022/01/01 18:22:31;;;;;;;0.57;0.57;;;;;;;;;;5077176;28;20206;-70
2022/01/01 18:25:05;;;;;;;0.77;0.57;;;;;;;;;;5072862;28;20676;-69
2022/01/01 18:27:38;;;;;;;3.43;1.07;;;;;;;;;;5076630;28;20667;-66
2022/01/01 18:30:07;;;;;;;1.50;1.43;;;;;;;;;;5072588;28;20214;-69
2022/01/01 18:32:35;;;;;;;0.53;0.53;;;;;;;;;;5069645;28;20202;-70
2022/01/01 18:35:04;;;;;;;2.53;2.07;;;;;;;;;;5069176;28;20217;-68
2022/01/01 18:37:33;;;;;;;0.00;0.00;;;;;;;;;;5071181;28;20199;-68
2022/01/01 18:40:01;;;;;;;0.93;0.57;;;;;;;;;;5073089;28;20216;-70
2022/01/01 18:42:29;;;;;;;1.30;0.93;;;;;;;;;;5069822;28;20230;-67
2022/01/01 18:44:58;;;;;;;2.33;1.63;;;;;;;;;;5068800;28;21868;-69
2022/01/01 18:47:27;;;;;;;0.07;0.03;;;;;;;;;;5070776;28;20945;-70
2022/01/01 18:49:55;;;;;;;0.47;0.43;;;;;;;;;;5071266;28;20280;-67
2022/01/01 18:52:26;;;;;;;0.00;0.00;;;;;;;;;;5072307;28;20210;-69
2022/01/01 18:54:57;;;;;;;0.17;0.17;;;;;;;;;;5071514;28;20198;-69
2022/01/01 18:57:28;;;;;;;0.10;0.10;;;;;;;;;;5065762;28;20810;-69
2022/01/01 18:59:58;;;;;;;1.57;1.23;;;;;;;;;;5069175;28;20557;-68
2022/01/01 19:02:27;;;;;;;0.20;0.20;;;;;;;;;;5070122;28;20213;-69
2022/01/01 19:04:57;;;;;;;1.87;1.50;;;;;;;;;;5069694;28;20218;-68
2022/01/01 19:07:25;;;;;;;1.03;0.80;;;;;;;;;;5067283;28;20203;-69
2022/01/01 19:09:54;;;;;;;1.50;1.40;;;;;;;;;;5071775;28;20199;-68
2022/01/01 19:12:25;;;;;;;0.33;0.20;;;;;;;;;;5076225;28;20203;-69